Аэропорт: Талаги. Архангельск

ICAO: ULAA

METAR:
2022-01-28 07:30:00
ULAA 280730Z 15003MPS 110V190 7000 -SN OVC006 M11/M13 Q1003 R08/490535 NOSIG RMK QBB180 QFE752/1002
METAR:
2022-01-28 05:00:00
TAF ULAA 280500Z 2806/2906 14003MPS 6000 -SN BKN007 TEMPO 2806/2810 16003MPS 0500 +SHSN +FZDZ BKN002 BKN011CB FM281000 13003MPS 9999 BKN016CB TEMPO 2810/2812 6000 -SHSN BKN011CB